Sand Pass, Nevada
Current Conditions -  °F | °C
As of 5:15 PM on Tuesday 27 Jan 2015 (Local Time) from KRTS Reporting Station
Overcast Overcast  
Wind Chill: 39°   Ceiling: 6000
Heat Index: 45°   Visibility: 10mi
Dew Point: 27°   Wind: 10mph
Humidity: 49%   Direction: 310°NW
Pressure: 30.22"   Gusts: NA
Location:  39.8171°N, 119.63°W
Report Text: KRTS 280115Z AUTO 31009KT 10SM OVC060 07/M03 A3022 RMK AO2
Loading
Personal Weather Stations






























Interactive Weather Map New forecast layout! Learn more

10-Day Weather Forecast

Advertisements
Track Severe Weather on mobile